aviador You're here:

LZZI Decoded Metar

ZILINA in SLOVAKIA
Report Time2017-08-22 16:30:00
UTC Time2017-08-22 16:41:10
Flight Rules vfr VFR
WindVRB at 02 kt
Visibility9999 m
Phenomena:N/A
Clouds:Scattered 040 Hf
Broken 057 Hf
Expected CloudBase > 2,000 ft AGL from Temp-Dew spread
Ceiling5,700 ft
Temp17°C (ISA +4)
Dew Point12°C (73% RH)
AAT16.9°C
QNH1017 hPa
Density Alt1,552 ft
Elevation1,020 ft
Report Wrong Elevation
Raw Report
LZZI 221630Z VRB02KT 9999 SCT040 BKN057 17/12 Q1017=

Extra information for LZZI:More info

Metar Taf Metar & Taf Last 4 Metars F.Rules Stats Wind Profile Meteogram Temp Stats Airport Information Weather charts Add Link Nearby VenuesMetar ALERT Operation Metar Decoded Social comments